Time,TemperatureF,DewpointF,PressureIn,WindDirection,WindDirectionDegrees,WindSpeedMPH,WindSpeedGustMPH,Humidity,HourlyPrecipIn,Conditions,Clouds,dailyrainin,SoftwareType,DateUTC
2013-07-11 00:01:00,63.0,58.0,29.91,WSW,246,0.0,0.0,83,0.00,,,0.00,,2013-07-11 04:01:00,
2013-07-11 00:12:00,63.0,58.0,29.91,WSW,246,0.0,0.0,84,0.00,,,0.00,,2013-07-11 04:12:00,
2013-07-11 00:22:00,63.0,58.0,29.91,WSW,246,0.0,0.0,84,0.00,,,0.00,,2013-07-11 04:22:00,
2013-07-11 00:32:00,61.0,56.0,29.91,WSW,246,0.0,0.0,85,0.00,,,0.00,,2013-07-11 04:32:00,
2013-07-11 00:42:00,62.0,57.0,29.91,ESE,123,0.0,2.0,84,0.00,,,0.00,,2013-07-11 04:42:00,
2013-07-11 00:53:00,62.0,57.0,29.91,ESE,123,0.0,2.0,84,0.00,,,0.00,,2013-07-11 04:53:00,
2013-07-11 01:01:00,61.0,56.0,29.91,ESE,122,0.0,0.0,85,0.00,,,0.00,,2013-07-11 05:01:00,
2013-07-11 01:12:00,61.0,56.0,29.91,ESE,122,0.0,0.0,85,0.00,,,0.00,,2013-07-11 05:12:00,
2013-07-11 01:22:00,61.0,56.0,29.91,ESE,122,0.0,0.0,85,0.00,,,0.00,,2013-07-11 05:22:00,
2013-07-11 01:32:00,60.0,55.0,29.91,ESE,123,0.0,0.0,85,0.00,,,0.00,,2013-07-11 05:32:00,
2013-07-11 01:43:00,60.0,56.0,29.91,ESE,123,0.0,0.0,86,0.00,,,0.00,,2013-07-11 05:43:00,
2013-07-11 01:52:00,60.0,56.0,29.91,ESE,123,0.0,0.0,86,0.00,,,0.00,,2013-07-11 05:52:00,
2013-07-11 02:01:00,60.0,56.0,29.91,ESE,123,0.0,0.0,86,0.00,,,0.00,,2013-07-11 06:01:00,
2013-07-11 02:11:00,59.0,55.0,29.91,ESE,122,0.0,0.0,87,0.00,,,0.00,,2013-07-11 06:11:00,
2013-07-11 02:22:00,59.0,55.0,29.91,ESE,122,0.0,0.0,87,0.00,,,0.00,,2013-07-11 06:22:00,
2013-07-11 02:32:00,60.0,56.0,29.91,ESE,110,0.0,1.0,87,0.00,,,0.00,,2013-07-11 06:32:00,
2013-07-11 02:43:00,62.0,56.0,29.91,SSE,153,0.0,2.0,81,0.00,,,0.00,,2013-07-11 06:43:00,
2013-07-11 02:52:00,62.0,56.0,29.91,SSE,153,0.0,2.0,81,0.00,,,0.00,,2013-07-11 06:52:00,
2013-07-11 03:01:00,63.0,56.0,29.91,SE,138,0.0,4.0,79,0.00,,,0.00,,2013-07-11 07:01:00,
2013-07-11 03:12:00,61.0,55.0,29.91,East,95,0.0,2.0,81,0.00,,,0.00,,2013-07-11 07:12:00,
2013-07-11 03:22:00,61.0,55.0,29.91,East,95,0.0,2.0,81,0.00,,,0.00,,2013-07-11 07:22:00,
2013-07-11 03:32:00,61.0,56.0,29.91,South,190,0.0,1.0,83,0.00,,,0.00,,2013-07-11 07:32:00,
2013-07-11 03:45:00,61.0,56.0,29.91,SW,226,0.0,1.0,83,0.00,,,0.00,,2013-07-11 07:45:00,
2013-07-11 03:53:00,61.0,56.0,29.91,SW,226,0.0,1.0,83,0.00,,,0.00,,2013-07-11 07:53:00,
2013-07-11 04:02:00,61.0,56.0,29.91,WSW,245,0.0,2.0,84,0.00,,,0.00,,2013-07-11 08:02:00,
2013-07-11 04:11:00,60.0,55.0,29.91,WSW,245,0.0,0.0,85,0.00,,,0.00,,2013-07-11 08:11:00,
2013-07-11 04:22:00,60.0,55.0,29.91,WSW,245,0.0,0.0,85,0.00,,,0.00,,2013-07-11 08:22:00,
2013-07-11 04:34:00,58.0,54.0,29.91,SSE,158,0.0,0.0,87,0.00,,,0.00,,2013-07-11 08:34:00,
2013-07-11 04:43:00,57.0,54.0,29.91,SE,141,0.0,1.0,89,0.00,,,0.00,,2013-07-11 08:43:00,
2013-07-11 04:53:00,57.0,54.0,29.91,SE,141,0.0,1.0,89,0.00,,,0.00,,2013-07-11 08:53:00,
2013-07-11 05:02:00,57.0,54.0,29.91,ESE,122,0.0,1.0,89,0.00,,,0.00,,2013-07-11 09:02:00,
2013-07-11 05:12:00,58.0,54.0,29.91,SSE,151,0.0,1.0,87,0.00,,,0.00,,2013-07-11 09:12:00,
2013-07-11 05:21:00,58.0,54.0,29.91,SSE,151,0.0,1.0,87,0.00,,,0.00,,2013-07-11 09:21:00,
2013-07-11 05:33:00,58.0,54.0,29.91,SSE,163,0.0,1.0,87,0.00,,,0.00,,2013-07-11 09:33:00,
2013-07-11 05:43:00,58.0,54.0,29.91,SSE,163,0.0,0.0,87,0.00,,,0.00,,2013-07-11 09:43:00,
2013-07-11 05:53:00,58.0,54.0,29.91,SSE,163,0.0,0.0,87,0.00,,,0.00,,2013-07-11 09:53:00,
2013-07-11 06:01:00,57.0,54.0,29.91,SSE,164,0.0,0.0,89,0.00,,,0.00,,2013-07-11 10:01:00,
2013-07-11 06:12:00,56.0,53.0,29.91,ESE,113,0.0,1.0,89,0.00,,,0.00,,2013-07-11 10:12:00,
2013-07-11 06:21:00,56.0,53.0,29.91,ESE,113,0.0,1.0,89,0.00,,,0.00,,2013-07-11 10:21:00,
2013-07-11 06:33:00,57.0,54.0,29.91,SE,126,0.0,2.0,89,0.00,,,0.00,,2013-07-11 10:33:00,
2013-07-11 06:42:00,57.0,53.0,29.91,ESE,115,1.0,2.0,88,0.00,,,0.00,,2013-07-11 10:42:00,
2013-07-11 06:52:00,57.0,53.0,29.91,ESE,115,1.0,2.0,88,0.00,,,0.00,,2013-07-11 10:52:00,
2013-07-11 07:02:00,57.0,54.0,29.91,ESE,103,1.0,2.0,89,0.00,,,0.00,,2013-07-11 11:02:00,
2013-07-11 07:12:00,56.0,52.0,29.91,SE,143,0.0,2.0,88,0.00,,,0.00,,2013-07-11 11:12:00,
2013-07-11 07:22:00,56.0,52.0,29.91,SE,143,0.0,2.0,88,0.00,,,0.00,,2013-07-11 11:22:00,
2013-07-11 07:32:00,56.0,53.0,29.91,ESE,111,0.0,1.0,90,0.00,,,0.00,,2013-07-11 11:32:00,
2013-07-11 07:43:00,56.0,53.0,29.91,ESE,113,0.0,1.0,91,0.00,,,0.00,,2013-07-11 11:43:00,
2013-07-11 07:53:00,56.0,53.0,29.91,ESE,113,0.0,1.0,91,0.00,,,0.00,,2013-07-11 11:53:00,
2013-07-11 08:01:00,58.0,55.0,29.91,ESE,105,1.0,2.0,90,0.00,,,0.00,,2013-07-11 12:01:00,
2013-07-11 08:12:00,59.0,55.0,29.91,ESE,120,2.0,3.0,87,0.00,,,0.00,,2013-07-11 12:12:00,
2013-07-11 08:22:00,59.0,55.0,29.91,ESE,120,2.0,3.0,87,0.00,,,0.00,,2013-07-11 12:22:00,
2013-07-11 08:33:00,60.0,56.0,29.91,ESE,120,2.0,3.0,86,0.00,,,0.00,,2013-07-11 12:33:00,
2013-07-11 08:43:00,62.0,57.0,29.91,SE,131,1.0,3.0,85,0.00,,,0.00,,2013-07-11 12:43:00,
2013-07-11 08:54:00,62.0,57.0,29.91,SE,131,1.0,3.0,85,0.00,,,0.00,,2013-07-11 12:54:00,
2013-07-11 09:02:00,63.0,58.0,29.91,SSE,164,2.0,5.0,83,0.00,,,0.00,,2013-07-11 13:02:00,
2013-07-11 09:12:00,65.0,59.0,29.91,South,187,5.0,9.0,81,0.00,,,0.00,,2013-07-11 13:12:00,
2013-07-11 09:22:00,65.0,59.0,29.91,South,187,5.0,9.0,81,0.00,,,0.00,,2013-07-11 13:22:00,
2013-07-11 09:34:00,66.0,59.0,29.91,South,169,6.0,11.0,79,0.00,,,0.00,,2013-07-11 13:34:00,
2013-07-11 09:45:00,67.0,60.0,29.91,SSE,151,7.0,12.0,77,0.00,,,0.00,,2013-07-11 13:45:00,
2013-07-11 10:04:00,69.0,61.0,29.90,South,191,8.0,13.0,76,0.00,,,0.00,,2013-07-11 14:04:00,
2013-07-11 10:14:00,70.0,61.0,29.90,South,186,6.0,13.0,74,0.00,,,0.00,,2013-07-11 14:14:00,
2013-07-11 10:23:00,70.0,61.0,29.90,South,186,6.0,13.0,74,0.00,,,0.00,,2013-07-11 14:23:00,
2013-07-11 10:35:00,71.0,61.0,29.89,South,179,9.0,13.0,70,0.00,,,0.00,,2013-07-11 14:35:00,
2013-07-11 10:45:00,72.0,61.0,29.88,SSW,195,8.0,15.0,68,0.00,,,0.00,,2013-07-11 14:45:00,
2013-07-11 11:04:00,73.0,61.0,29.88,South,187,7.0,12.0,67,0.00,,,0.00,,2013-07-11 15:04:00,
2013-07-11 11:12:00,74.0,61.0,29.88,South,188,8.0,15.0,64,0.00,,,0.00,,2013-07-11 15:12:00,
2013-07-11 11:23:00,74.0,61.0,29.88,South,188,8.0,15.0,64,0.00,,,0.00,,2013-07-11 15:23:00,
2013-07-11 11:35:00,75.0,62.0,29.86,South,173,8.0,17.0,65,0.00,,,0.00,,2013-07-11 15:35:00,
2013-07-11 11:45:00,76.0,62.0,29.86,South,186,8.0,18.0,62,0.00,,,0.00,,2013-07-11 15:45:00,
2013-07-11 11:55:00,76.0,62.0,29.86,South,186,8.0,18.0,62,0.00,,,0.00,,2013-07-11 15:55:00,
2013-07-11 12:04:00,77.0,61.0,29.85,SSW,210,10.0,20.0,58,0.00,,,0.00,,2013-07-11 16:04:00,
2013-07-11 12:13:00,78.0,62.0,29.85,South,180,11.0,20.0,58,0.00,,,0.00,,2013-07-11 16:13:00,
2013-07-11 12:23:00,78.0,62.0,29.85,South,180,11.0,20.0,58,0.00,,,0.00,,2013-07-11 16:23:00,
2013-07-11 12:34:00,79.0,61.0,29.84,SW,222,11.0,19.0,55,0.00,,,0.00,,2013-07-11 16:34:00,
2013-07-11 12:44:00,79.0,61.0,29.84,SW,228,10.0,18.0,55,0.00,,,0.00,,2013-07-11 16:44:00,
2013-07-11 12:54:00,79.0,61.0,29.84,SW,228,10.0,18.0,55,0.00,,,0.00,,2013-07-11 16:54:00,
2013-07-11 13:02:00,80.0,62.0,29.83,SSE,150,11.0,17.0,54,0.00,,,0.00,,2013-07-11 17:02:00,
2013-07-11 13:13:00,81.0,62.0,29.83,SSE,160,9.0,17.0,53,0.00,,,0.00,,2013-07-11 17:13:00,
2013-07-11 13:37:00,82.0,63.0,29.82,SE,145,5.0,14.0,52,0.00,,,0.00,,2013-07-11 17:37:00,
2013-07-11 13:45:00,80.0,62.0,29.82,South,191,8.0,18.0,54,0.00,,,0.00,,2013-07-11 17:45:00,
2013-07-11 13:52:00,80.0,62.0,29.82,South,191,8.0,18.0,54,0.00,,,0.00,,2013-07-11 17:52:00,
2013-07-11 14:03:00,81.0,62.0,29.82,South,191,9.0,18.0,53,0.00,,,0.00,,2013-07-11 18:03:00,
2013-07-11 14:14:00,82.0,63.0,29.81,South,186,8.0,17.0,53,0.00,,,0.00,,2013-07-11 18:14:00,
2013-07-11 14:22:00,82.0,63.0,29.81,South,186,8.0,17.0,53,0.00,,,0.00,,2013-07-11 18:22:00,
2013-07-11 14:35:00,83.0,66.0,29.80,East,101,8.0,17.0,56,0.00,,,0.00,,2013-07-11 18:35:00,
2013-07-11 14:45:00,84.0,65.0,29.79,SSW,195,7.0,15.0,53,0.00,,,0.00,,2013-07-11 18:45:00,
2013-07-11 14:53:00,84.0,65.0,29.79,SSW,195,7.0,15.0,53,0.00,,,0.00,,2013-07-11 18:53:00,
2013-07-11 15:03:00,84.0,65.0,29.79,South,191,9.0,16.0,53,0.00,,,0.00,,2013-07-11 19:03:00,
2013-07-11 15:12:00,84.0,66.0,29.78,ESE,123,6.0,16.0,54,0.00,,,0.00,,2013-07-11 19:12:00,
2013-07-11 15:23:00,84.0,66.0,29.78,ESE,123,6.0,16.0,54,0.00,,,0.00,,2013-07-11 19:23:00,
2013-07-11 15:37:00,85.0,66.0,29.78,South,172,8.0,17.0,53,0.00,,,0.00,,2013-07-11 19:37:00,
2013-07-11 15:44:00,84.0,66.0,29.78,SE,135,5.0,20.0,54,0.00,,,0.00,,2013-07-11 19:44:00,
2013-07-11 15:54:00,84.0,66.0,29.78,SE,135,5.0,20.0,54,0.00,,,0.00,,2013-07-11 19:54:00,
2013-07-11 16:04:00,85.0,66.0,29.77,SSE,158,5.0,16.0,54,0.00,,,0.00,,2013-07-11 20:04:00,
2013-07-11 16:12:00,85.0,67.0,29.76,SSE,163,5.0,17.0,55,0.00,,,0.00,,2013-07-11 20:12:00,
2013-07-11 16:25:00,85.0,67.0,29.76,SSE,163,5.0,17.0,55,0.00,,,0.00,,2013-07-11 20:25:00,
2013-07-11 16:46:00,86.0,66.0,29.75,SSW,196,9.0,14.0,52,0.00,,,0.00,,2013-07-11 20:46:00,
2013-07-11 17:04:00,87.0,67.0,29.74,SE,142,7.0,17.0,52,0.00,,,0.00,,2013-07-11 21:04:00,
2013-07-11 17:13:00,87.0,68.0,29.74,SE,139,9.0,16.0,53,0.00,,,0.00,,2013-07-11 21:13:00,
2013-07-11 17:23:00,87.0,68.0,29.74,SE,139,9.0,16.0,53,0.00,,,0.00,,2013-07-11 21:23:00,
2013-07-11 17:34:00,87.0,68.0,29.74,SE,138,8.0,16.0,53,0.00,,,0.00,,2013-07-11 21:34:00,
2013-07-11 17:44:00,87.0,67.0,29.73,SSE,148,12.0,19.0,52,0.00,,,0.00,,2013-07-11 21:44:00,
2013-07-11 18:04:00,87.0,67.0,29.72,South,188,12.0,21.0,52,0.00,,,0.00,,2013-07-11 22:04:00,
2013-07-11 18:23:00,87.0,69.0,29.72,South,173,7.0,20.0,55,0.00,,,0.00,,2013-07-11 22:23:00,
2013-07-11 18:33:00,87.0,69.0,29.70,SE,137,7.0,14.0,55,0.00,,,0.00,,2013-07-11 22:33:00,
2013-07-11 18:45:00,87.0,68.0,29.71,SSW,206,9.0,20.0,54,0.00,,,0.00,,2013-07-11 22:45:00,
2013-07-11 18:54:00,87.0,68.0,29.71,SSW,206,9.0,20.0,54,0.00,,,0.00,,2013-07-11 22:54:00,
2013-07-11 19:04:00,87.0,69.0,29.71,SSE,165,7.0,17.0,56,0.00,,,0.00,,2013-07-11 23:04:00,
2013-07-11 19:13:00,86.0,67.0,29.71,SSW,201,12.0,24.0,54,0.00,,,0.00,,2013-07-11 23:13:00,
2013-07-11 19:23:00,86.0,67.0,29.71,SSW,201,12.0,24.0,54,0.00,,,0.00,,2013-07-11 23:23:00,
2013-07-11 19:35:00,86.0,68.0,29.70,South,179,8.0,22.0,56,0.00,,,0.00,,2013-07-11 23:35:00,
2013-07-11 19:46:00,86.0,68.0,29.70,SSE,155,8.0,18.0,56,0.00,,,0.00,,2013-07-11 23:46:00,
2013-07-11 19:54:00,86.0,68.0,29.70,SSE,155,8.0,18.0,56,0.00,,,0.00,,2013-07-11 23:54:00,
2013-07-11 20:13:00,85.0,69.0,29.70,SSW,194,9.0,19.0,58,0.00,,,0.00,,2013-07-12 00:13:00,
2013-07-11 20:23:00,85.0,69.0,29.70,SSW,194,9.0,19.0,58,0.00,,,0.00,,2013-07-12 00:23:00,
2013-07-11 20:34:00,85.0,69.0,29.69,SSW,195,6.0,15.0,58,0.00,,,0.00,,2013-07-12 00:34:00,
2013-07-11 20:54:00,85.0,69.0,29.68,SE,129,4.0,12.0,59,0.00,,,0.00,,2013-07-12 00:54:00,
2013-07-11 21:03:00,84.0,69.0,29.67,SW,222,4.0,10.0,61,0.00,,,0.00,,2013-07-12 01:03:00,
2013-07-11 21:12:00,84.0,69.0,29.67,SSE,162,5.0,11.0,61,0.00,,,0.00,,2013-07-12 01:12:00,
2013-07-11 21:25:00,84.0,69.0,29.67,SSE,162,5.0,11.0,61,0.00,,,0.00,,2013-07-12 01:25:00,
2013-07-11 21:35:00,83.0,69.0,29.67,South,191,2.0,12.0,63,0.00,,,0.00,,2013-07-12 01:35:00,
2013-07-11 21:44:00,82.0,68.0,29.67,SSE,158,6.0,17.0,63,0.00,,,0.00,,2013-07-12 01:44:00,
2013-07-11 21:55:00,82.0,68.0,29.67,SSE,158,6.0,17.0,63,0.00,,,0.00,,2013-07-12 01:55:00,
2013-07-11 22:04:00,81.0,68.0,29.66,SE,129,2.0,8.0,65,0.00,,,0.00,,2013-07-12 02:04:00,
2013-07-11 22:15:00,80.0,68.0,29.66,ESE,123,3.0,8.0,67,0.00,,,0.00,,2013-07-12 02:15:00,
2013-07-11 22:24:00,80.0,68.0,29.66,ESE,123,3.0,8.0,67,0.00,,,0.00,,2013-07-12 02:24:00,
2013-07-11 22:35:00,78.0,67.0,29.67,ESE,116,2.0,8.0,70,0.00,,,0.00,,2013-07-12 02:35:00,
2013-07-11 22:43:00,77.0,67.0,29.67,ESE,105,2.0,7.0,72,0.00,,,0.00,,2013-07-12 02:43:00,
2013-07-11 22:52:00,77.0,67.0,29.67,ESE,105,2.0,7.0,72,0.00,,,0.00,,2013-07-12 02:52:00,
2013-07-11 23:02:00,77.0,68.0,29.67,SE,142,2.0,7.0,73,0.00,,,0.00,,2013-07-12 03:02:00,
2013-07-11 23:13:00,76.0,67.0,29.67,SE,139,3.0,9.0,73,0.00,,,0.00,,2013-07-12 03:13:00,
2013-07-11 23:23:00,76.0,67.0,29.67,SE,139,3.0,9.0,73,0.00,,,0.00,,2013-07-12 03:23:00,
2013-07-11 23:35:00,76.0,67.0,29.67,SE,146,4.0,10.0,74,0.00,,,0.00,,2013-07-12 03:35:00,
2013-07-11 23:43:00,76.0,67.0,29.66,SE,133,4.0,8.0,75,0.00,,,0.00,,2013-07-12 03:43:00,